Time;durP1;ratioP1;P1;durP2;ratioP2;P2;SDS_P1;SDS_P2;PMS_P1;PMS_P2;Temp;Humidity;BMP_temperature;BMP_pressure;BME280_temperature;BME280_humidity;BME280_pressure;Samples;Min_cycle;Max_cycle;Signal;HPM_P1;HPM_P2
2022/09/04 00:02:03;;;;;;;5.97;3.67;;;12.80;99.90;;;;;;5051521;28;20037;-52
2022/09/04 00:04:56;;;;;;;4.10;3.55;;;12.80;99.90;;;;;;5051379;28;20415;-51
2022/09/04 00:08:03;;;;;;;9.33;3.17;;;12.70;99.90;;;;;;5050288;28;20051;-51
2022/09/04 00:10:46;;;;;;;5.30;2.90;;;12.70;99.90;;;;;;5002336;28;20098;-54
2022/09/04 00:13:45;;;;;;;3.30;2.93;;;12.70;99.90;;;;;;5051854;28;20421;-53
2022/09/04 00:16:41;;;;;;;123.18;7.38;;;12.70;99.90;;;;;;5086626;28;20032;-53
2022/09/04 00:19:18;;;;;;;9.23;3.50;;;12.60;99.90;;;;;;5082101;28;20032;-51
2022/09/04 00:21:55;;;;;;;211.43;12.07;;;12.50;99.90;;;;;;5091772;28;20031;-50
2022/09/04 00:24:36;;;;;;;5.57;3.22;;;12.40;99.90;;;;;;5091745;28;20070;-52
2022/09/04 00:27:09;;;;;;;26.08;3.78;;;12.40;99.90;;;;;;5091813;28;20058;-51
2022/09/04 00:29:50;;;;;;;45.50;3.97;;;12.50;99.90;;;;;;5089112;28;20052;-53
2022/09/04 00:32:50;;;;;;;201.93;7.70;;;12.40;99.90;;;;;;5071288;28;20028;-52
2022/09/04 00:35:21;;;;;;;123.15;6.05;;;12.50;99.90;;;;;;5069876;28;20115;-54
2022/09/04 00:38:10;;;;;;;68.50;4.35;;;12.60;99.90;;;;;;5069227;28;20458;-50
2022/09/04 00:40:49;;;;;;;110.75;6.10;;;12.50;99.90;;;;;;5069879;28;20025;-52
2022/09/04 00:43:38;;;;;;;87.78;5.45;;;12.50;99.90;;;;;;5070689;28;20082;-52
2022/09/04 00:46:31;;;;;;;96.68;5.22;;;12.50;99.90;;;;;;5070863;28;20029;-50
2022/09/04 00:49:13;;;;;;;47.30;3.83;;;12.50;99.90;;;;;;5070962;28;20025;-53
2022/09/04 00:51:50;;;;;;;36.13;4.60;;;12.40;99.90;;;;;;5070785;28;20025;-53
2022/09/04 00:54:43;;;;;;;28.92;5.00;;;12.50;99.90;;;;;;5071284;28;20028;-54
2022/09/04 00:57:18;;;;;;;27.90;4.57;;;12.50;99.90;;;;;;5071133;28;20410;-50
2022/09/04 01:00:05;;;;;;;12.90;4.30;;;12.40;99.90;;;;;;5078737;28;20028;-50
2022/09/04 01:02:51;;;;;;;8.07;4.20;;;12.50;99.90;;;;;;5091213;28;20107;-53
2022/09/04 01:05:19;;;;;;;17.17;4.47;;;12.50;99.90;;;;;;5091188;28;20371;-51
2022/09/04 01:08:00;;;;;;;39.60;4.60;;;12.60;99.90;;;;;;5091212;28;20150;-50
2022/09/04 01:10:33;;;;;;;77.88;5.28;;;12.60;99.90;;;;;;5091165;28;20028;-51
2022/09/04 01:13:02;;;;;;;56.50;5.70;;;12.50;99.90;;;;;;5091341;28;20059;-54
2022/09/04 01:15:44;;;;;;;66.50;5.53;;;12.60;99.90;;;;;;5090885;28;20135;-54
2022/09/04 01:18:44;;;;;;;54.97;5.78;;;12.60;99.90;;;;;;5091520;28;20459;-51
2022/09/04 01:21:34;;;;;;;57.78;6.00;;;12.70;99.90;;;;;;5054596;28;20063;-53
2022/09/04 01:24:18;;;;;;;86.05;6.85;;;12.70;99.90;;;;;;5054880;28;20028;-51
2022/09/04 01:27:01;;;;;;;106.50;7.63;;;12.80;99.90;;;;;;5054489;28;20028;-50
2022/09/04 01:29:45;;;;;;;142.10;7.83;;;12.80;99.90;;;;;;5054732;28;20500;-51
2022/09/04 01:32:32;;;;;;;203.32;8.98;;;12.80;99.90;;;;;;5054731;28;20392;-50
2022/09/04 01:35:23;;;;;;;190.77;8.10;;;12.80;99.90;;;;;;5068841;28;20034;-52
2022/09/04 01:38:15;;;;;;;201.45;9.10;;;12.90;99.90;;;;;;5074630;28;20020;-51
2022/09/04 01:40:52;;;;;;;220.10;12.00;;;12.80;99.90;;;;;;5074542;28;20020;-52
2022/09/04 01:43:20;;;;;;;181.52;11.43;;;12.80;99.90;;;;;;5074389;28;20056;-51
2022/09/04 01:46:22;;;;;;;72.95;5.60;;;12.80;99.90;;;;;;5074316;28;20020;-53
2022/09/04 01:48:56;;;;;;;51.15;5.10;;;12.70;99.90;;;;;;5080573;28;20028;-50
2022/09/04 01:51:51;;;;;;;41.65;4.60;;;12.70;99.90;;;;;;5094383;28;20070;-51
2022/09/04 01:54:30;;;;;;;50.90;4.88;;;12.70;99.90;;;;;;5094345;28;20025;-51
2022/09/04 01:57:33;;;;;;;39.70;4.68;;;12.50;99.90;;;;;;5094553;28;20405;-52
2022/09/04 02:00:06;;;;;;;44.00;4.90;;;12.50;99.90;;;;;;5094477;28;20027;-52
2022/09/04 02:02:41;;;;;;;27.27;4.50;;;12.50;99.90;;;;;;5092980;28;20024;-53
2022/09/04 02:05:07;;;;;;;5.53;3.35;;;12.50;99.90;;;;;;5074698;28;20013;-53
2022/09/04 02:07:43;;;;;;;7.30;2.90;;;12.60;99.90;;;;;;5073996;28;20618;-51
2022/09/04 02:10:27;;;;;;;13.73;4.22;;;12.60;99.90;;;;;;5073994;28;20024;-54
2022/09/04 02:13:21;;;;;;;24.00;3.88;;;12.50;99.90;;;;;;5074068;28;20471;-54
2022/09/04 02:15:57;;;;;;;23.30;4.28;;;12.40;99.90;;;;;;5074067;28;20115;-51
2022/09/04 02:18:50;;;;;;;8.68;4.18;;;12.30;99.90;;;;;;5074742;28;20036;-52
2022/09/04 02:21:34;;;;;;;27.33;4.10;;;12.30;99.90;;;;;;5094044;28;20520;-54
2022/09/04 02:24:12;;;;;;;15.60;3.42;;;12.30;99.90;;;;;;5094109;28;20059;-52
2022/09/04 02:27:14;;;;;;;13.68;3.75;;;12.20;99.90;;;;;;5093965;28;20023;-52
2022/09/04 02:29:47;;;;;;;19.35;3.40;;;12.20;99.90;;;;;;5092771;28;20352;-51
2022/09/04 02:32:21;;;;;;;21.70;4.18;;;12.10;99.90;;;;;;5093924;28;20032;-54
2022/09/04 02:34:54;;;;;;;10.95;3.60;;;12.10;99.90;;;;;;5093609;28;20032;-52
2022/09/04 02:37:52;;;;;;;18.90;4.10;;;12.00;99.90;;;;;;5093636;28;20077;-51
2022/09/04 02:40:48;;;;;;;97.93;6.43;;;12.00;99.90;;;;;;5093646;28;20068;-51
2022/09/04 02:43:29;;;;;;;158.07;7.63;;;12.00;99.90;;;;;;5093791;28;20016;-52
2022/09/04 02:46:04;;;;;;;83.88;5.40;;;12.10;99.90;;;;;;5093637;28;20020;-52
2022/09/04 02:49:12;;;;;;;5.28;3.20;;;12.10;99.90;;;;;;5085749;28;20020;-51
2022/09/04 02:52:00;;;;;;;7.70;2.92;;;12.10;99.90;;;;;;5073128;28;20094;-52
2022/09/04 02:54:47;;;;;;;22.13;3.28;;;12.20;99.90;;;;;;5073173;28;20016;-53
2022/09/04 02:57:53;;;;;;;84.75;4.75;;;12.20;99.90;;;;;;5073209;28;20534;-55
2022/09/04 03:00:27;;;;;;;60.53;4.15;;;12.00;99.90;;;;;;5072851;28;20033;-51
2022/09/04 03:03:13;;;;;;;33.60;3.47;;;12.00;99.90;;;;;;5073141;28;20543;-52
2022/09/04 03:05:58;;;;;;;35.10;3.67;;;11.80;99.90;;;;;;5083425;28;20484;-53
2022/09/04 03:08:43;;;;;;;15.43;2.95;;;11.80;99.90;;;;;;5091034;28;20550;-55
2022/09/04 03:11:12;;;;;;;32.55;3.53;;;11.70;99.90;;;;;;5093152;28;20047;-52
2022/09/04 03:13:52;;;;;;;30.17;3.33;;;11.60;99.90;;;;;;5093156;28;20534;-52
2022/09/04 03:16:44;;;;;;;9.05;2.45;;;11.50;99.90;;;;;;5092868;28;20030;-53
2022/09/04 03:19:26;;;;;;;13.70;2.22;;;11.60;99.90;;;;;;5093058;28;20028;-52
2022/09/04 03:22:04;;;;;;;13.90;1.95;;;11.70;99.90;;;;;;5091086;28;20082;-52
2022/09/04 03:24:33;;;;;;;64.78;3.67;;;11.80;99.90;;;;;;5092617;28;20020;-52
2022/09/04 03:27:07;;;;;;;95.85;4.20;;;11.80;99.90;;;;;;5091544;28;20115;-54
2022/09/04 03:29:45;;;;;;;55.88;3.75;;;11.80;99.90;;;;;;5091447;28;20485;-53
2022/09/04 03:32:19;;;;;;;78.15;4.13;;;11.70;99.90;;;;;;5092797;28;20036;-52
2022/09/04 03:35:17;;;;;;;95.38;4.45;;;11.70;99.90;;;;;;5088949;28;20020;-51
2022/09/04 03:38:02;;;;;;;82.65;4.22;;;11.70;99.90;;;;;;5072186;28;20111;-54
2022/09/04 03:40:40;;;;;;;73.05;3.67;;;11.70;99.90;;;;;;5071916;28;20111;-51
2022/09/04 03:43:47;;;;;;;72.60;3.80;;;11.70;99.90;;;;;;5072381;28;20017;-53
2022/09/04 03:46:34;;;;;;;72.18;3.58;;;11.60;99.90;;;;;;5052308;28;20028;-54
2022/09/04 03:49:08;;;;;;;45.78;3.10;;;11.60;99.90;;;;;;5070860;28;20511;-51
2022/09/04 03:51:50;;;;;;;94.93;3.75;;;11.60;99.90;;;;;;5072024;28;20111;-54
2022/09/04 03:54:48;;;;;;;80.18;3.50;;;11.60;99.90;;;;;;5070701;28;20077;-53
2022/09/04 03:57:28;;;;;;;50.40;3.30;;;11.60;99.90;;;;;;5072101;28;20391;-54
2022/09/04 04:00:17;;;;;;;57.00;3.05;;;11.60;99.90;;;;;;5071990;28;20112;-52
2022/09/04 04:03:30;;;;;;;48.42;3.38;;;11.60;99.90;;;;;;5071764;28;20103;-55
2022/09/04 04:06:14;;;;;;;38.00;3.05;;;11.60;99.90;;;;;;5023372;28;20037;-53
2022/09/04 04:08:45;;;;;;;4.68;2.13;;;11.50;99.90;;;;;;5051580;28;20087;-54
2022/09/04 04:11:59;;;;;;;31.58;2.95;;;11.50;99.90;;;;;;5051776;28;20384;-51
2022/09/04 04:14:44;;;;;;;32.00;2.90;;;11.50;99.90;;;;;;5049739;28;20048;-52
2022/09/04 04:17:31;;;;;;;72.57;4.07;;;11.50;99.90;;;;;;5051721;28;20032;-55
2022/09/04 04:20:21;;;;;;;43.90;3.22;;;11.40;99.90;;;;;;5072712;28;20036;-55
2022/09/04 04:22:59;;;;;;;54.83;3.42;;;11.50;99.90;;;;;;5091802;28;20055;-52
2022/09/04 04:25:58;;;;;;;18.90;2.42;;;11.60;99.90;;;;;;5091410;28;20052;-54
2022/09/04 04:28:34;;;;;;;8.27;2.00;;;11.70;99.90;;;;;;5091550;28;20024;-51
2022/09/04 04:32:10;;;;;;;59.40;3.20;;;11.80;99.90;;;;;;5091650;28;20038;-52
2022/09/04 04:35:10;;;;;;;90.93;4.75;;;11.70;99.90;;;;;;5072143;28;20039;-56
2022/09/04 04:37:52;;;;;;;95.43;4.72;;;11.70;99.90;;;;;;5071429;28;20115;-55
2022/09/04 04:40:36;;;;;;;55.05;4.10;;;11.70;99.90;;;;;;5071334;28;20020;-55
2022/09/04 04:43:34;;;;;;;75.15;4.35;;;11.70;99.90;;;;;;5071486;28;20044;-54
2022/09/04 04:46:19;;;;;;;20.52;3.30;;;11.70;99.90;;;;;;5071472;28;20028;-52
2022/09/04 04:49:22;;;;;;;39.85;3.80;;;11.80;99.90;;;;;;5071496;28;20024;-52
2022/09/04 04:52:06;;;;;;;59.53;4.22;;;11.90;99.90;;;;;;5071237;28;20037;-51
2022/09/04 04:54:34;;;;;;;;;;;11.90;99.90;;;;;;5075045;28;20024;-51
2022/09/04 04:57:35;;;;;;;136.30;6.30;;;12.00;99.90;;;;;;5074005;28;19930;-51
2022/09/04 05:00:18;;;;;;;92.03;5.90;;;11.90;99.90;;;;;;5073999;28;20028;-51
2022/09/04 05:03:26;;;;;;;122.10;6.53;;;11.80;99.90;;;;;;5073945;28;20062;-51
2022/09/04 05:06:11;;;;;;;7.05;3.10;;;11.90;99.90;;;;;;5073280;28;20486;-56
2022/09/04 05:09:03;;;;;;;11.75;2.85;;;11.90;99.90;;;;;;5073736;28;20044;-54
2022/09/04 05:12:17;;;;;;;12.60;2.60;;;11.90;99.90;;;;;;5073689;28;20479;-53
2022/09/04 05:15:00;;;;;;;44.17;4.53;;;11.90;99.90;;;;;;5031110;28;20405;-51
2022/09/04 05:17:42;;;;;;;34.03;3.97;;;11.80;99.90;;;;;;5069895;28;20078;-54
2022/09/04 05:20:27;;;;;;;9.10;2.97;;;11.70;99.90;;;;;;5073695;28;20036;-53
2022/09/04 05:23:02;;;;;;;7.20;3.33;;;11.70;99.90;;;;;;5073699;28;20036;-53
2022/09/04 05:25:40;;;;;;;3.85;3.40;;;11.80;99.90;;;;;;5073613;28;20078;-54
2022/09/04 05:28:32;;;;;;;10.32;3.40;;;11.90;99.90;;;;;;5073600;28;20020;-53
2022/09/04 05:31:10;;;;;;;4.10;3.80;;;11.90;99.90;;;;;;5072011;28;20415;-52
2022/09/04 05:33:44;;;;;;;4.15;3.30;;;11.90;99.90;;;;;;5078171;28;20054;-51
2022/09/04 05:36:44;;;;;;;2.33;2.13;;;12.10;99.90;;;;;;5093705;28;20027;-54
2022/09/04 05:39:37;;;;;;;3.17;2.80;;;12.20;99.90;;;;;;5033459;28;20064;-54
2022/09/04 05:42:28;;;;;;;3.43;2.23;;;12.20;99.90;;;;;;5052802;28;20403;-52
2022/09/04 05:45:02;;;;;;;3.83;2.40;;;12.20;99.90;;;;;;5053266;28;20027;-52
2022/09/04 05:48:00;;;;;;;3.10;2.65;;;12.30;99.90;;;;;;5053017;28;20029;-53
2022/09/04 05:50:51;;;;;;;2.47;2.28;;;12.50;99.90;;;;;;5052799;28;20040;-52
2022/09/04 05:53:47;;;;;;;2.40;2.20;;;12.70;99.90;;;;;;5070078;28;20028;-52
2022/09/04 05:56:34;;;;;;;2.83;2.63;;;12.60;99.90;;;;;;5073023;28;20021;-55
2022/09/04 05:59:12;;;;;;;2.95;2.75;;;12.70;99.90;;;;;;5072969;28;20021;-53
2022/09/04 06:01:49;;;;;;;5.82;2.63;;;12.80;99.90;;;;;;5072637;28;20028;-52
2022/09/04 06:04:18;;;;;;;30.70;6.05;;;12.90;99.90;;;;;;5071514;28;20061;-51
2022/09/04 06:07:06;;;;;;;6.75;3.58;;;13.00;99.90;;;;;;5077136;28;20024;-54
2022/09/04 06:10:03;;;;;;;4.00;2.60;;;13.10;99.90;;;;;;5092575;28;20483;-52
2022/09/04 06:12:36;;;;;;;5.57;3.63;;;13.20;99.90;;;;;;5071290;28;20044;-51
2022/09/04 06:15:24;;;;;;;4.47;3.28;;;13.40;99.90;;;;;;5092919;28;20069;-53
2022/09/04 06:18:08;;;;;;;3.50;2.70;;;13.60;99.90;;;;;;5092845;28;20024;-52
2022/09/04 06:20:55;;;;;;;2.65;2.45;;;13.80;99.90;;;;;;5092510;28;20024;-55
2022/09/04 06:23:58;;;;;;;2.83;2.63;;;14.00;99.90;;;;;;5091648;28;20024;-52
2022/09/04 06:27:01;;;;;;;3.22;2.92;;;14.20;99.90;;;;;;5090944;28;20020;-50
2022/09/04 06:29:49;;;;;;;2.50;2.30;;;14.40;99.90;;;;;;5090795;28;20213;-51
2022/09/04 06:32:33;;;;;;;3.60;2.90;;;14.60;99.90;;;;;;5082615;28;20031;-51
2022/09/04 06:34:58;;;;;;;;;;;14.70;99.90;;;;;;5075982;28;20322;-51
2022/09/04 06:37:37;;;;;;;3.05;2.33;;;14.90;99.90;;;;;;5070603;28;19978;-52
2022/09/04 06:40:28;;;;;;;2.92;2.72;;;15.00;99.90;;;;;;5073444;28;20415;-54
2022/09/04 06:43:05;;;;;;;2.60;2.40;;;15.20;99.90;;;;;;5071462;28;20023;-52
2022/09/04 06:45:52;;;;;;;3.85;2.53;;;15.30;99.90;;;;;;5071834;28;20024;-51
2022/09/04 06:48:48;;;;;;;3.55;2.30;;;15.30;99.90;;;;;;5071773;28;20021;-51
2022/09/04 06:51:38;;;;;;;2.00;1.80;;;15.40;99.90;;;;;;5071412;28;20052;-51
2022/09/04 06:54:27;;;;;;;1.95;1.85;;;15.60;99.90;;;;;;5070079;28;20456;-50
2022/09/04 06:56:58;;;;;;;2.97;2.20;;;15.70;99.90;;;;;;5070261;28;20031;-52
2022/09/04 06:59:35;;;;;;;2.47;2.05;;;15.70;99.90;;;;;;5070077;28;20082;-56
2022/09/04 07:02:14;;;;;;;4.97;3.05;;;15.80;99.90;;;;;;5069018;28;20032;-51
2022/09/04 07:04:46;;;;;;;11.95;2.28;;;15.90;99.90;;;;;;5067733;28;20017;-53
2022/09/04 07:07:19;;;;;;;4.93;2.13;;;16.10;99.90;;;;;;5068922;28;20166;-52
2022/09/04 07:10:02;;;;;;;1.52;1.42;;;16.40;99.90;;;;;;5070309;28;20024;-52
2022/09/04 07:12:58;;;;;;;3.45;1.52;;;16.60;99.90;;;;;;5070544;28;20028;-52
2022/09/04 07:15:57;;;;;;;2.00;1.80;;;16.80;99.90;;;;;;5069978;28;20021;-51
2022/09/04 07:18:53;;;;;;;1.13;1.13;;;17.10;99.90;;;;;;5071257;28;20048;-50
2022/09/04 07:21:47;;;;;;;6.35;1.55;;;17.60;99.90;;;;;;5071153;28;20024;-52
2022/09/04 07:24:33;;;;;;;2.92;1.67;;;18.00;99.90;;;;;;5071410;28;20013;-52
2022/09/04 07:27:14;;;;;;;5.45;1.60;;;18.20;99.90;;;;;;5071250;28;20047;-53
2022/09/04 07:29:49;;;;;;;1.60;1.50;;;18.70;99.90;;;;;;5069777;28;20017;-52
2022/09/04 07:32:25;;;;;;;2.13;1.38;;;18.80;99.90;;;;;;5071224;28;20032;-51
2022/09/04 07:35:03;;;;;;;2.22;1.40;;;19.00;99.90;;;;;;5071277;28;20506;-52
2022/09/04 07:37:42;;;;;;;2.45;1.15;;;19.10;99.90;;;;;;5071014;28;20437;-51
2022/09/04 07:40:16;;;;;;;2.30;1.38;;;19.20;99.90;;;;;;5071178;28;20108;-52
2022/09/04 07:42:56;;;;;;;;;;;19.10;99.90;;;;;;5072577;28;20029;-51
2022/09/04 07:45:36;;;;;;;2.60;1.30;;;19.10;99.90;;;;;;5071975;28;20003;-50
2022/09/04 07:48:30;;;;;;;2.25;1.55;;;19.30;99.90;;;;;;5080663;28;20023;-51
2022/09/04 07:51:16;;;;;;;3.15;1.15;;;19.20;99.90;;;;;;5091294;28;20107;-51
2022/09/04 07:53:48;;;;;;;3.88;1.50;;;19.30;99.90;;;;;;5090071;28;20028;-52
2022/09/04 07:56:48;;;;;;;2.13;1.52;;;19.40;99.90;;;;;;5070767;28;20032;-52
2022/09/04 07:59:44;;;;;;;2.10;1.80;;;19.30;99.90;;;;;;5069439;28;20138;-51
2022/09/04 08:02:16;;;;;;;1.40;1.00;;;19.70;99.90;;;;;;5070549;28;20450;-52
2022/09/04 08:04:59;;;;;;;9.38;1.25;;;19.80;99.90;;;;;;5070505;28;20028;-51
2022/09/04 08:07:46;;;;;;;;;;;19.40;99.90;;;;;;5081578;28;20040;-52
2022/09/04 08:10:49;;;;;;;3.30;1.58;;;19.50;99.90;;;;;;5088148;28;19991;-51
2022/09/04 08:13:42;;;;;;;1.42;1.30;;;20.00;99.90;;;;;;5089026;28;20424;-51
2022/09/04 08:16:31;;;;;;;2.40;1.42;;;20.20;99.90;;;;;;5090565;28;20085;-51
2022/09/04 08:19:07;;;;;;;7.88;1.63;;;20.60;99.90;;;;;;5090327;28;20024;-52
2022/09/04 08:21:36;;;;;;;2.88;1.20;;;20.70;99.90;;;;;;5090225;28;20107;-51
2022/09/04 08:24:40;;;;;;;1.10;1.10;;;20.70;99.90;;;;;;5090402;28;20028;-48
2022/09/04 08:27:23;;;;;;;0.95;0.95;;;21.20;99.90;;;;;;5089232;28;20020;-53
2022/09/04 08:30:03;;;;;;;4.47;1.90;;;21.20;99.90;;;;;;5089867;28;20024;-51
2022/09/04 08:32:41;;;;;;;1.38;1.27;;;21.00;99.90;;;;;;5090052;28;20506;-54
2022/09/04 08:35:34;;;;;;;1.48;1.25;;;20.90;99.90;;;;;;5083986;28;20509;-51
2022/09/04 08:38:06;;;;;;;2.20;1.70;;;21.10;99.90;;;;;;5071552;28;20055;-51
2022/09/04 08:41:09;;;;;;;3.35;0.98;;;21.20;99.90;;;;;;5071097;28;20507;-53
2022/09/04 08:43:55;;;;;;;3.85;1.40;;;21.20;99.90;;;;;;5070072;28;20012;-54
2022/09/04 08:46:28;;;;;;;1.30;1.20;;;21.00;99.90;;;;;;5055194;28;20025;-51
2022/09/04 08:49:09;;;;;;;1.67;1.40;;;20.80;99.90;;;;;;5071226;28;20013;-52
2022/09/04 08:52:26;;;;;;;1.33;1.20;;;20.90;99.90;;;;;;5070022;28;20024;-53
2022/09/04 08:55:04;;;;;;;8.65;1.35;;;21.20;99.90;;;;;;5032251;28;20041;-53
2022/09/04 08:57:58;;;;;;;1.30;1.20;;;21.70;99.90;;;;;;5071438;28;20032;-51
2022/09/04 09:00:45;;;;;;;5.10;1.10;;;22.00;99.90;;;;;;5050987;28;20029;-52
2022/09/04 09:03:29;;;;;;;1.45;1.17;;;22.10;99.90;;;;;;5062054;28;20059;-53
2022/09/04 09:06:14;;;;;;;;;;;22.40;99.90;;;;;;5070234;28;20483;-51
2022/09/04 09:09:10;;;;;;;2.60;1.20;;;22.40;99.90;;;;;;5074668;28;19948;-52
2022/09/04 09:11:58;;;;;;;6.32;1.48;;;22.30;99.90;;;;;;5072198;28;20039;-53
2022/09/04 09:14:39;;;;;;;1.52;1.42;;;22.50;99.90;;;;;;5066638;28;20024;-52
2022/09/04 09:17:44;;;;;;;1.52;1.42;;;22.60;99.90;;;;;;5065760;28;20092;-56
2022/09/04 09:20:12;;;;;;;1.27;0.98;;;22.50;99.90;;;;;;5068034;28;20468;-54
2022/09/04 09:23:02;;;;;;;4.03;1.30;;;22.90;99.90;;;;;;5069489;28;20051;-53
2022/09/04 09:25:50;;;;;;;1.95;1.13;;;22.90;99.90;;;;;;5067355;28;20067;-55
2022/09/04 09:29:00;;;;;;;1.38;1.27;;;23.10;99.90;;;;;;5069296;28;20047;-52
2022/09/04 09:32:02;;;;;;;4.32;1.40;;;23.20;99.90;;;;;;5069093;28;20483;-53
2022/09/04 09:34:58;;;;;;;4.47;1.15;;;23.70;99.90;;;;;;5069394;28;20483;-52
2022/09/04 09:37:50;;;;;;;1.40;1.30;;;23.90;99.90;;;;;;5071654;28;20024;-54
2022/09/04 09:40:43;;;;;;;3.85;1.13;;;23.80;99.90;;;;;;5070597;28;20419;-55
2022/09/04 09:43:20;;;;;;;2.30;1.20;;;23.90;99.90;;;;;;5076770;28;20099;-54
2022/09/04 09:46:23;;;;;;;1.23;1.13;;;23.80;99.90;;;;;;5076497;28;20035;-51
2022/09/04 09:49:51;;;;;;;2.63;1.20;;;23.80;99.90;;;;;;5069724;28;20016;-51
2022/09/04 09:52:40;;;;;;;5.13;1.27;;;23.60;99.90;;;;;;5041274;28;20029;-53
2022/09/04 09:55:27;;;;;;;1.10;1.08;;;23.60;99.90;;;;;;5053958;28;20108;-54
2022/09/04 09:58:23;;;;;;;1.23;1.13;;;23.50;99.90;;;;;;5054142;28;20032;-51
2022/09/04 10:00:58;;;;;;;1.95;1.50;;;23.30;99.90;;;;;;5053909;28;20053;-53
2022/09/04 10:03:45;;;;;;;2.35;1.25;;;22.90;99.90;;;;;;5054819;28;20025;-52
2022/09/04 10:06:29;;;;;;;2.03;1.13;;;23.50;99.90;;;;;;5054113;28;20407;-50
2022/09/04 10:09:43;;;;;;;6.15;1.20;;;23.50;99.90;;;;;;5069157;28;20045;-52
2022/09/04 10:12:46;;;;;;;3.60;1.20;;;23.50;99.90;;;;;;5051910;28;20052;-51
2022/09/04 10:15:36;;;;;;;4.65;1.60;;;23.40;99.70;;;;;;5053714;28;20415;-52
2022/09/04 10:18:21;;;;;;;2.30;1.70;;;23.30;99.90;;;;;;5055156;28;20405;-53
2022/09/04 10:21:11;;;;;;;1.52;1.20;;;23.60;99.90;;;;;;5071828;28;20539;-52
2022/09/04 10:24:18;;;;;;;2.13;1.40;;;24.10;99.30;;;;;;5072995;28;20020;-51
2022/09/04 10:26:55;;;;;;;1.35;1.20;;;24.10;99.30;;;;;;5067445;28;20025;-54
2022/09/04 10:30:05;;;;;;;2.03;1.45;;;24.70;99.90;;;;;;5056978;28;20050;-51
2022/09/04 10:32:31;;;;;;;1.25;1.10;;;24.50;98.30;;;;;;4999626;28;20041;-52
2022/09/04 10:35:23;;;;;;;1.70;1.40;;;24.90;98.30;;;;;;5053538;28;20040;-54
2022/09/04 10:37:59;;;;;;;1.50;1.17;;;26.00;97.80;;;;;;5061833;28;20165;-53
2022/09/04 10:40:42;;;;;;;3.33;1.23;;;26.00;96.20;;;;;;5061460;28;20077;-54
2022/09/04 10:43:13;;;;;;;1.30;1.20;;;25.90;95.30;;;;;;5060259;28;20033;-51
2022/09/04 10:45:39;;;;;;;1.73;1.38;;;25.30;96.70;;;;;;5060907;28;20032;-54
2022/09/04 10:48:34;;;;;;;1.40;1.30;;;25.20;96.70;;;;;;5061021;28;20078;-53
2022/09/04 10:51:12;;;;;;;1.48;1.38;;;25.20;96.80;;;;;;5059975;28;22475;-52
2022/09/04 10:54:25;;;;;;;1.80;1.48;;;25.20;97.70;;;;;;5060736;28;20031;-51
2022/09/04 10:57:18;;;;;;;1.35;1.25;;;25.10;96.60;;;;;;5047931;28;20053;-52
2022/09/04 11:00:07;;;;;;;1.33;1.10;;;25.10;96.40;;;;;;5060396;28;20090;-53
2022/09/04 11:02:39;;;;;;;4.10;1.02;;;25.40;96.70;;;;;;5061652;28;20112;-52
2022/09/04 11:05:36;;;;;;;1.52;0.80;;;25.70;95.90;;;;;;5061342;28;20107;-51
2022/09/04 11:08:20;;;;;;;3.20;1.10;;;25.90;95.90;;;;;;5060547;28;20051;-53
2022/09/04 11:11:20;;;;;;;1.20;1.10;;;25.20;95.70;;;;;;5061217;28;20182;-51
2022/09/04 11:14:05;;;;;;;1.08;1.00;;;25.60;96.20;;;;;;5061485;28;20119;-50
2022/09/04 11:16:51;;;;;;;5.75;1.40;;;26.00;95.10;;;;;;5061760;28;20031;-53
2022/09/04 11:19:44;;;;;;;2.38;1.02;;;24.90;95.60;;;;;;5060633;28;20037;-52
2022/09/04 11:22:33;;;;;;;1.10;1.00;;;25.10;96.10;;;;;;5060874;28;20021;-51
2022/09/04 11:25:23;;;;;;;1.23;1.13;;;24.80;96.00;;;;;;5061781;28;20046;-52
2022/09/04 11:28:01;;;;;;;2.20;1.25;;;24.70;96.30;;;;;;5061397;28;20059;-53
2022/09/04 11:30:55;;;;;;;2.20;1.20;;;24.90;96.60;;;;;;5060151;28;20035;-51
2022/09/04 11:34:13;;;;;;;1.95;1.10;;;24.50;96.00;;;;;;5029130;28;20041;-50
2022/09/04 11:37:29;;;;;;;4.47;1.35;;;23.80;98.10;;;;;;5044761;28;20037;-51
2022/09/04 11:40:27;;;;;;;3.60;1.50;;;23.80;97.60;;;;;;5026872;28;20071;-51
2022/09/04 11:42:55;;;;;;;1.38;1.27;;;24.00;97.80;;;;;;5060784;28;20029;-50
2022/09/04 11:45:25;;;;;;;1.40;1.30;;;24.20;98.40;;;;;;5059645;28;20092;-51
2022/09/04 11:48:28;;;;;;;3.17;1.60;;;24.40;98.00;;;;;;5060865;28;20162;-53
2022/09/04 11:51:18;;;;;;;1.40;1.10;;;23.90;97.40;;;;;;5060404;28;20471;-54
2022/09/04 11:54:08;;;;;;;1.55;1.25;;;24.50;97.20;;;;;;5061223;28;20044;-51
2022/09/04 11:56:41;;;;;;;3.53;1.48;;;25.40;97.70;;;;;;5060428;28;20033;-51
2022/09/04 11:59:34;;;;;;;3.33;1.17;;;26.00;96.30;;;;;;5061879;28;20123;-51
2022/09/04 12:02:18;;;;;;;1.40;1.30;;;26.30;96.30;;;;;;5061371;28;20109;-51
2022/09/04 12:05:17;;;;;;;1.27;1.10;;;26.30;94.80;;;;;;5063106;28;20035;-55
2022/09/04 12:07:58;;;;;;;7.93;1.50;;;26.50;94.40;;;;;;5061192;28;20037;-52
2022/09/04 12:10:42;;;;;;;1.27;1.10;;;26.60;94.00;;;;;;5063264;28;20487;-51
2022/09/04 12:13:26;;;;;;;1.65;1.55;;;26.70;95.30;;;;;;5080644;28;20398;-52
2022/09/04 12:15:54;;;;;;;1.05;0.95;;;26.80;95.00;;;;;;5062589;28;20498;-54
2022/09/04 12:18:23;;;;;;;3.00;1.48;;;27.20;93.80;;;;;;5074372;28;22442;-52
2022/09/04 12:21:12;;;;;;;1.63;1.00;;;27.50;93.80;;;;;;5081411;28;20024;-51
2022/09/04 12:23:50;;;;;;;1.80;1.08;;;28.20;92.90;;;;;;5080518;28;20469;-52
2022/09/04 12:26:34;;;;;;;1.73;1.10;;;28.80;90.50;;;;;;5067773;28;20089;-51
2022/09/04 12:29:05;;;;;;;2.35;1.30;;;28.30;91.30;;;;;;5060918;28;20024;-54
2022/09/04 12:32:02;;;;;;;1.15;1.10;;;27.10;91.10;;;;;;5060600;28;20078;-54
2022/09/04 12:35:05;;;;;;;1.05;0.95;;;27.90;91.40;;;;;;5033700;28;20059;-52
2022/09/04 12:37:31;;;;;;;0.77;0.70;;;28.20;90.40;;;;;;5060484;28;20033;-52
2022/09/04 12:40:11;;;;;;;1.05;1.00;;;28.10;91.10;;;;;;5062233;28;20055;-52
2022/09/04 12:43:04;;;;;;;2.03;1.05;;;28.20;90.20;;;;;;5079973;28;20101;-54
2022/09/04 12:45:57;;;;;;;0.93;0.82;;;28.50;90.70;;;;;;5079154;28;20436;-52
2022/09/04 12:48:47;;;;;;;1.15;1.00;;;28.20;90.00;;;;;;5081220;28;20103;-51
2022/09/04 12:54:52;;;;;;;3.13;0.90;;;26.40;91.10;;;;;;5071587;28;20066;-51
2022/09/04 12:57:18;;;;;;;;;;;26.50;91.60;;;;;;5057189;28;20031;-52
2022/09/04 13:00:06;;;;;;;8.57;1.23;;;26.00;91.30;;;;;;5058549;28;19908;-51
2022/09/04 13:03:03;;;;;;;1.48;1.38;;;25.70;91.90;;;;;;5058463;28;20029;-52
2022/09/04 13:05:50;;;;;;;1.38;1.27;;;25.30;93.70;;;;;;5073850;28;20064;-55
2022/09/04 13:08:30;;;;;;;2.30;1.20;;;25.10;93.70;;;;;;5077262;28;20052;-52
2022/09/04 13:11:12;;;;;;;1.48;1.30;;;24.90;93.20;;;;;;5076337;28;20040;-52
2022/09/04 13:13:55;;;;;;;1.77;1.13;;;24.70;95.10;;;;;;5078294;28;20024;-52
2022/09/04 13:16:44;;;;;;;1.85;1.15;;;25.10;94.90;;;;;;5066828;28;20020;-51
2022/09/04 13:19:48;;;;;;;1.08;1.00;;;25.30;93.60;;;;;;5062723;28;20387;-50
2022/09/04 13:22:32;;;;;;;;;;;26.30;94.40;;;;;;5054501;28;20072;-53
2022/09/04 13:25:17;;;;;;;3.47;1.00;;;28.50;90.70;;;;;;5062091;28;19913;-55
2022/09/04 13:28:18;;;;;;;1.73;0.77;;;30.90;88.50;;;;;;5061172;28;20071;-55
2022/09/04 13:31:12;;;;;;;1.05;0.75;;;33.00;79.80;;;;;;5061600;28;20044;-51
2022/09/04 13:33:42;;;;;;;1.40;0.80;;;34.70;74.20;;;;;;5062607;28;20032;-51
2022/09/04 13:36:23;;;;;;;1.65;1.17;;;34.20;68.20;;;;;;5075898;28;20020;-53
2022/09/04 13:39:15;;;;;;;2.75;0.85;;;34.20;66.50;;;;;;5074006;28;20133;-52
2022/09/04 13:42:22;;;;;;;0.88;0.70;;;35.30;63.40;;;;;;5082089;28;20487;-56
2022/09/04 13:45:10;;;;;;;1.05;0.90;;;34.80;62.90;;;;;;5031204;28;20499;-53
2022/09/04 13:47:49;;;;;;;3.83;1.10;;;35.00;60.70;;;;;;5082229;28;20471;-52
2022/09/04 13:50:17;;;;;;;0.77;0.77;;;33.70;64.30;;;;;;5081307;28;20475;-55
2022/09/04 13:52:52;;;;;;;1.10;0.73;;;34.70;62.30;;;;;;5077140;28;20028;-55
2022/09/04 13:55:28;;;;;;;1.25;0.70;;;35.40;58.90;;;;;;5061655;28;20032;-53
2022/09/04 13:58:12;;;;;;;3.40;0.82;;;35.10;60.80;;;;;;5060582;28;20123;-56
2022/09/04 14:01:12;;;;;;;2.15;0.70;;;36.30;56.10;;;;;;5061133;28;20359;-56
2022/09/04 14:04:06;;;;;;;0.50;0.50;;;35.60;56.20;;;;;;5050115;28;20438;-50
2022/09/04 14:06:35;;;;;;;3.60;0.68;;;35.00;56.90;;;;;;5038556;28;20083;-54
2022/09/04 14:09:02;;;;;;;0.70;0.70;;;35.70;57.90;;;;;;5061135;28;20102;-54
2022/09/04 14:12:01;;;;;;;1.50;0.77;;;35.50;58.20;;;;;;5073955;28;20024;-54
2022/09/04 14:14:48;;;;;;;14.10;1.45;;;38.40;52.40;;;;;;5066980;28;20043;-52
2022/09/04 14:17:25;;;;;;;2.33;0.60;;;37.40;54.40;;;;;;5060735;28;20067;-53
2022/09/04 14:20:27;;;;;;;2.63;1.00;;;38.10;51.10;;;;;;5061627;28;20145;-54
2022/09/04 14:23:08;;;;;;;1.00;0.55;;;37.60;50.60;;;;;;5055964;28;20045;-53
2022/09/04 14:25:33;;;;;;;0.70;0.70;;;38.50;49.60;;;;;;5059230;28;20109;-52
2022/09/04 14:28:19;;;;;;;4.03;0.75;;;39.10;48.40;;;;;;5060999;28;20480;-53